Погода Картуньна неделю

Тверская область, Россия

19 - 25 мая
  • 19мая
    Сегодня
    +11°
    +24°
    Ясно и безоблачно
    ВремяПогодаТемператураВлажностьДавлениеВетер, м/сВероятность осадков
    00:00Ясно и безоблачно+11°C67 %745 мм1.1 м/с2 %
    03:00Ясно и безоблачно+8°C73 %745 мм0.8 м/с2 %
    06:00Ясно и безоблачно+9°C77 %745 мм0.9 м/с2 %
    09:00Ясно и безоблачно+17°C62 %745 мм1.2 м/с2 %
    12:00Ясно и безоблачно+22°C40 %744 мм2.0 м/с2 %
    15:00Ясно и безоблачно+23°C35 %744 мм2.1 м/с2 %
    18:00Облачно с прояснениями+23°C33 %742 мм1.5 м/с2 %
    21:00Небольшая облачность+18°C64 %742 мм1.2 м/с2 %
  • 20мая
    Понедельник
    +10°
    +24°
    Небольшая облачность
    ВремяПогодаТемператураВлажностьДавлениеВетер, м/сВероятность осадков
    00:00Практически безоблачно+13°C73 %742 мм1.0 м/с2 %
    03:00Ясно и безоблачно+12°C78 %742 мм0.9 м/с2 %
    06:00Ясно и безоблачно+13°C74 %742 мм1.2 м/с2 %
    09:00Ясно и безоблачно+20°C66 %743 мм1.7 м/с2 %
    12:00Ясно и безоблачно+23°C47 %743 мм2.6 м/с5 %
    15:00Небольшая облачность+23°C48 %743 мм2.3 м/с20 %
    18:00Облачно с прояснениями, небольшой дождь+21°C64 %743 мм1.5 м/с52 %
    21:00Небольшая облачность+17°C74 %743 мм0.7 м/с14 %
  • 21мая
    Вторник
    +8°
    +22°
    Облачно с прояснениями
    ВремяПогодаТемператураВлажностьДавлениеВетер, м/сВероятность осадков
    00:00Практически безоблачно+12°C88 %743 мм0.3 м/с3 %
    03:00Небольшая облачность+11°C96 %744 мм0.4 м/с6 %
    06:00Небольшая облачность+12°C94 %744 мм0.8 м/с6 %
    09:00Ясно и безоблачно+17°C83 %746 мм1.1 м/с13 %
    12:00Практически безоблачно+20°C66 %746 мм2.0 м/с27 %
    15:00Облачно с прояснениями+22°C52 %745 мм2.1 м/с40 %
    18:00Облачно с прояснениями+22°C44 %745 мм1.5 м/с24 %
    21:00Небольшая облачность+17°C56 %745 мм1.3 м/с4 %
  • 22мая
    Среда
    +7°
    +21°
    Ясно и безоблачно
    ВремяПогодаТемператураВлажностьДавлениеВетер, м/сВероятность осадков
    00:00Ясно и безоблачно+11°C57 %746 мм1.3 м/с2 %
    03:00Ясно и безоблачно+9°C59 %746 мм1.1 м/с2 %
    06:00Ясно и безоблачно+9°C66 %747 мм1.2 м/с2 %
    09:00Ясно и безоблачно+16°C54 %748 мм1.4 м/с2 %
    12:00Ясно и безоблачно+19°C42 %748 мм2.1 м/с4 %
    15:00Ясно и безоблачно+21°C39 %747 мм2.6 м/с7 %
    18:00Ясно и безоблачно+20°C40 %747 мм2.3 м/с4 %
    21:00Ясно и безоблачно+16°C52 %748 мм1.6 м/с2 %
  • 23мая
    Четверг
    +6°
    +19°
    Ясно и безоблачно
    ВремяПогодаТемператураВлажностьДавлениеВетер, м/сВероятность осадков
    00:00Ясно и безоблачно+11°C52 %749 мм1.6 м/с2 %
    03:00Ясно и безоблачно+8°C56 %750 мм1.4 м/с2 %
    06:00Ясно и безоблачно+8°C60 %751 мм1.6 м/с2 %
    09:00Ясно и безоблачно+15°C44 %752 мм2.4 м/с2 %
    12:00Ясно и безоблачно+18°C38 %753 мм2.7 м/с2 %
    15:00Ясно и безоблачно+19°C36 %752 мм2.6 м/с4 %
    18:00Ясно и безоблачно+19°C34 %752 мм2.1 м/с4 %
    21:00Ясно и безоблачно+14°C47 %752 мм1.3 м/с2 %
Мы используем cookies
Соглашаюсь